createdAt,value
2022-10-30T00:01:34.257Z,12.57
2022-10-30T00:04:00.663Z,15.05
2022-10-30T00:06:27.044Z,13.07
2022-10-30T00:08:53.439Z,12.07
2022-10-30T00:11:19.900Z,22.88
2022-10-30T00:13:46.366Z,19.15
2022-10-30T00:16:12.822Z,13.05
2022-10-30T00:18:41.891Z,13.25
2022-10-30T00:21:13.791Z,15.65
2022-10-30T00:23:46.993Z,17.73
2022-10-30T00:26:13.880Z,15.77
2022-10-30T00:28:40.288Z,17.45
2022-10-30T00:31:06.762Z,10.55
2022-10-30T00:33:33.828Z,18.05
2022-10-30T00:36:00.551Z,15.20
2022-10-30T00:38:26.973Z,18.88
2022-10-30T00:40:53.393Z,13.60
2022-10-30T00:43:35.643Z,13.77
2022-10-30T00:46:12.680Z,19.80
2022-10-30T00:48:39.996Z,15.20
2022-10-30T00:51:10.860Z,14.98
2022-10-30T00:53:39.276Z,21.20
2022-10-30T00:56:08.228Z,13.23
2022-10-30T00:58:42.370Z,15.57
2022-10-30T01:01:15.308Z,18.88
2022-10-30T01:03:42.044Z,17.02
2022-10-30T01:06:11.983Z,11.75
2022-10-30T01:08:38.952Z,15.73
2022-10-30T01:11:06.155Z,18.02
2022-10-30T01:13:34.344Z,15.90
2022-10-30T01:16:19.210Z,14.95
2022-10-30T01:19:13.778Z,14.13
2022-10-30T01:22:14.244Z,14.60
2022-10-30T01:25:07.003Z,17.55
2022-10-30T01:27:51.292Z,14.30
2022-10-30T01:30:48.006Z,10.73
2022-10-30T01:33:29.855Z,13.55
2022-10-30T01:36:13.613Z,16.02
2022-10-30T01:38:47.902Z,11.30
2022-10-30T01:41:14.680Z,17.98
2022-10-30T01:43:46.284Z,15.50
2022-10-30T01:46:40.415Z,13.95
2022-10-30T01:49:39.754Z,24.17
2022-10-30T01:52:39.512Z,13.88
2022-10-30T01:55:42.910Z,15.43
2022-10-30T01:58:32.595Z,18.55
2022-10-30T02:01:00.338Z,16.73
2022-10-30T02:03:29.163Z,15.90
2022-10-30T02:05:55.891Z,15.85
2022-10-30T02:08:23.632Z,15.30
2022-10-30T02:10:52.888Z,12.18
2022-10-30T02:13:30.473Z,16.75
2022-10-30T02:15:59.275Z,11.35
2022-10-30T02:18:25.755Z,14.38
2022-10-30T02:20:53.766Z,16.52
2022-10-30T02:23:22.226Z,17.10
2022-10-30T02:25:49.933Z,11.68
2022-10-30T02:28:16.463Z,14.55
2022-10-30T02:30:45.698Z,14.18
2022-10-30T02:33:12.267Z,13.02
2022-10-30T02:35:38.772Z,11.27
2022-10-30T02:38:05.179Z,14.18
2022-10-30T02:40:31.841Z,12.57
2022-10-30T02:42:58.238Z,14.02
2022-10-30T02:45:24.698Z,13.10
2022-10-30T02:47:51.242Z,12.93
2022-10-30T02:50:18.238Z,14.23
2022-10-30T02:52:44.801Z,12.98
2022-10-30T02:55:11.743Z,16.13
2022-10-30T02:57:38.639Z,17.95
2022-10-30T03:00:06.571Z,18.73
2022-10-30T03:02:33.254Z,13.75
2022-10-30T03:04:59.953Z,13.60
2022-10-30T03:07:26.337Z,11.52
2022-10-30T03:09:54.176Z,16.63
2022-10-30T03:12:21.469Z,14.40
2022-10-30T03:14:47.860Z,17.23
2022-10-30T03:17:14.262Z,13.18
2022-10-30T03:19:43.552Z,19.38
2022-10-30T03:22:09.978Z,14.70
2022-10-30T03:24:38.181Z,20.13
2022-10-30T03:27:04.907Z,11.02
2022-10-30T03:29:31.377Z,12.75
2022-10-30T03:31:57.792Z,14.38
2022-10-30T03:34:28.426Z,13.25
2022-10-30T03:36:55.043Z,14.73
2022-10-30T03:39:22.254Z,16.80
2022-10-30T03:41:49.027Z,14.73
2022-10-30T03:44:15.421Z,18.70
2022-10-30T03:46:41.831Z,13.82
2022-10-30T03:49:28.512Z,15.55
2022-10-30T03:51:56.211Z,19.35
2022-10-30T03:54:24.753Z,15.52
2022-10-30T03:56:51.562Z,10.75
2022-10-30T03:59:18.122Z,12.68
2022-10-30T04:01:58.460Z,17.02
2022-10-30T04:04:24.975Z,14.35
2022-10-30T04:06:52.023Z,17.95
2022-10-30T04:09:18.432Z,16.23
2022-10-30T04:11:45.627Z,11.35
2022-10-30T04:14:12.016Z,13.93
2022-10-30T04:16:38.427Z,17.73
2022-10-30T04:19:04.880Z,20.63
2022-10-30T04:21:31.298Z,15.00
2022-10-30T04:23:58.408Z,12.98
2022-10-30T04:26:28.278Z,20.70
2022-10-30T04:28:54.692Z,16.90
2022-10-30T04:31:21.150Z,20.63
2022-10-30T04:33:48.604Z,19.88
2022-10-30T04:36:17.769Z,12.23
2022-10-30T04:38:45.265Z,13.32
2022-10-30T04:41:12.076Z,13.68
2022-10-30T04:43:57.288Z,20.70
2022-10-30T04:46:23.780Z,17.33
2022-10-30T04:48:57.279Z,17.75
2022-10-30T04:51:24.054Z,12.55
2022-10-30T04:53:51.267Z,12.30
2022-10-30T04:56:17.820Z,13.73
2022-10-30T04:58:44.228Z,16.30
2022-10-30T05:01:10.707Z,12.80
2022-10-30T05:03:37.696Z,16.92
2022-10-30T05:06:22.162Z,14.32
2022-10-30T05:08:49.572Z,14.90
2022-10-30T05:11:31.657Z,15.27
2022-10-30T05:13:58.661Z,15.98
2022-10-30T05:16:25.961Z,16.33
2022-10-30T05:18:53.682Z,11.85
2022-10-30T05:21:21.282Z,10.18
2022-10-30T05:23:47.854Z,21.40
2022-10-30T05:26:14.531Z,17.63
2022-10-30T05:28:42.466Z,17.83
2022-10-30T05:31:08.938Z,16.08
2022-10-30T05:34:03.191Z,15.80
2022-10-30T05:38:59.383Z,14.05
2022-10-30T05:41:37.279Z,14.32
2022-10-30T05:44:04.010Z,9.48
2022-10-30T05:46:31.767Z,14.82
2022-10-30T05:49:07.307Z,13.93
2022-10-30T05:51:37.936Z,13.77
2022-10-30T05:54:08.226Z,15.18
2022-10-30T05:56:37.396Z,15.23
2022-10-30T05:59:04.337Z,19.38
2022-10-30T06:01:30.964Z,21.15
2022-10-30T06:04:00.600Z,15.90
2022-10-30T06:06:27.177Z,23.00
2022-10-30T06:08:53.617Z,23.98
2022-10-30T06:11:38.406Z,17.35
2022-10-30T06:14:06.096Z,25.60
2022-10-30T06:16:39.510Z,22.02
2022-10-30T06:19:22.393Z,17.48
2022-10-30T06:21:51.139Z,17.40
2022-10-30T06:24:27.222Z,12.85
2022-10-30T06:27:28.802Z,19.33
2022-10-30T06:29:55.780Z,13.00
2022-10-30T06:32:22.438Z,21.67
2022-10-30T06:34:49.579Z,16.25
2022-10-30T06:37:17.666Z,15.98
2022-10-30T06:39:44.514Z,18.50
2022-10-30T06:42:47.786Z,14.65
2022-10-30T06:45:34.492Z,11.38
2022-10-30T06:48:02.493Z,11.80
2022-10-30T06:50:34.211Z,11.25
2022-10-30T06:53:00.623Z,9.07
2022-10-30T06:55:28.149Z,13.77
2022-10-30T06:58:09.972Z,14.10
2022-10-30T07:01:11.568Z,15.30
2022-10-30T07:03:56.723Z,14.48
2022-10-30T07:06:23.350Z,12.38
2022-10-30T07:08:49.720Z,11.60
2022-10-30T07:11:16.869Z,13.82
2022-10-30T07:13:57.550Z,13.00
2022-10-30T07:16:46.867Z,13.73
2022-10-30T07:19:13.382Z,14.52
2022-10-30T07:21:40.425Z,11.20
2022-10-30T07:24:07.355Z,14.65
2022-10-30T07:26:49.561Z,15.32
2022-10-30T07:29:37.243Z,16.95
2022-10-30T07:34:51.084Z,10.23
2022-10-30T07:37:35.976Z,12.50
2022-10-30T07:40:12.479Z,13.50
2022-10-30T07:43:05.901Z,16.55
2022-10-30T07:45:52.332Z,11.98
2022-10-30T07:48:35.767Z,13.30
2022-10-30T07:51:20.867Z,15.73
2022-10-30T07:53:47.998Z,16.55
2022-10-30T07:56:15.166Z,10.18
2022-10-30T07:58:53.422Z,12.23
2022-10-30T08:01:45.829Z,11.57
2022-10-30T08:04:32.594Z,12.50
2022-10-30T08:07:08.728Z,12.85
2022-10-30T08:09:35.168Z,16.80
2022-10-30T08:12:02.067Z,19.50
2022-10-30T08:14:28.469Z,15.25
2022-10-30T08:16:55.798Z,19.00
2022-10-30T08:19:22.494Z,20.95
2022-10-30T08:21:49.007Z,22.58
2022-10-30T08:24:18.988Z,24.17
2022-10-30T08:26:47.502Z,19.25
2022-10-30T08:29:15.168Z,18.25
2022-10-30T08:31:43.984Z,16.65
2022-10-30T08:34:16.321Z,24.00
2022-10-30T08:36:54.152Z,21.67
2022-10-30T08:39:20.803Z,26.48
2022-10-30T08:42:07.626Z,23.50
2022-10-30T08:44:40.927Z,25.40
2022-10-30T08:47:16.159Z,22.88
2022-10-30T08:49:42.563Z,26.88
2022-10-30T08:52:10.181Z,23.85
2022-10-30T08:54:38.096Z,17.35
2022-10-30T08:57:04.491Z,25.92
2022-10-30T08:59:32.010Z,19.52
2022-10-30T09:01:59.677Z,19.88
2022-10-30T09:08:01.259Z,19.77
2022-10-30T09:10:48.324Z,28.02
2022-10-30T09:13:15.287Z,16.92
2022-10-30T09:15:43.094Z,25.73
2022-10-30T09:18:10.446Z,23.98
2022-10-30T09:20:38.356Z,24.50
2022-10-30T09:23:04.923Z,20.33
2022-10-30T09:25:31.330Z,22.13
2022-10-30T09:28:08.037Z,27.05
2022-10-30T09:30:56.247Z,30.63
2022-10-30T09:33:23.768Z,20.45
2022-10-30T09:36:15.631Z,36.53
2022-10-30T09:38:45.519Z,25.63
2022-10-30T09:41:39.932Z,20.33
2022-10-30T09:44:06.296Z,23.10
2022-10-30T09:47:00.890Z,24.13
2022-10-30T09:49:31.238Z,24.85
2022-10-30T09:52:30.091Z,26.33
2022-10-30T09:55:04.393Z,21.08
2022-10-30T09:57:59.891Z,20.58
2022-10-30T10:00:43.981Z,20.70
2022-10-30T10:03:42.948Z,18.27
2022-10-30T10:06:28.929Z,20.13
2022-10-30T10:09:25.006Z,23.00
2022-10-30T10:12:35.389Z,20.27
2022-10-30T10:15:10.253Z,22.38
2022-10-30T10:17:41.159Z,18.88
2022-10-30T10:20:17.140Z,37.57
2022-10-30T10:22:51.068Z,22.17
2022-10-30T10:25:20.425Z,21.38
2022-10-30T10:27:59.023Z,22.25
2022-10-30T10:30:34.975Z,29.98
2022-10-30T10:33:20.340Z,23.50
2022-10-30T10:36:05.061Z,16.83
2022-10-30T10:38:53.264Z,20.73
2022-10-30T10:41:53.596Z,15.93
2022-10-30T10:44:26.320Z,14.32
2022-10-30T10:47:17.690Z,16.83
2022-10-30T10:49:44.019Z,19.38
2022-10-30T10:52:16.665Z,21.20
2022-10-30T10:54:52.465Z,23.85
2022-10-30T10:57:36.351Z,23.73
2022-10-30T11:00:13.229Z,21.75
2022-10-30T11:03:09.400Z,20.17
2022-10-30T11:05:50.387Z,24.95
2022-10-30T11:08:25.155Z,24.63
2022-10-30T11:11:03.280Z,22.35
2022-10-30T11:13:38.458Z,22.30
2022-10-30T11:16:33.254Z,24.88
2022-10-30T11:19:02.390Z,21.00
2022-10-30T11:21:33.508Z,24.23
2022-10-30T11:23:59.970Z,28.52
2022-10-30T11:26:30.558Z,19.75
2022-10-30T11:29:14.956Z,20.65
2022-10-30T11:31:43.512Z,25.35
2022-10-30T11:34:18.900Z,29.90
2022-10-30T11:36:47.810Z,21.73
2022-10-30T11:39:25.897Z,21.00
2022-10-30T11:42:01.503Z,19.25
2022-10-30T11:44:42.279Z,18.30
2022-10-30T11:47:11.341Z,24.63
2022-10-30T11:49:46.742Z,23.52
2022-10-30T11:52:19.469Z,21.98
2022-10-30T11:54:50.744Z,23.40
2022-10-30T11:57:31.280Z,22.77
2022-10-30T12:00:03.814Z,44.03
2022-10-30T12:02:43.948Z,25.35
2022-10-30T12:05:25.365Z,21.08
2022-10-30T12:08:16.132Z,18.83
2022-10-30T12:10:47.067Z,31.85
2022-10-30T12:13:18.308Z,23.13
2022-10-30T12:15:48.528Z,17.48
2022-10-30T12:18:25.184Z,23.10
2022-10-30T12:20:54.764Z,20.75
2022-10-30T12:23:25.794Z,22.75
2022-10-30T12:26:09.292Z,19.98
2022-10-30T12:28:36.325Z,23.55
2022-10-30T12:31:05.444Z,17.17
2022-10-30T12:33:49.930Z,20.95
2022-10-30T12:36:30.879Z,23.67
2022-10-30T12:39:06.448Z,25.73
2022-10-30T12:42:04.039Z,18.13
2022-10-30T12:44:38.997Z,22.45
2022-10-30T12:47:25.486Z,20.05
2022-10-30T12:49:58.411Z,20.50
2022-10-30T12:52:32.238Z,22.10
2022-10-30T12:55:26.479Z,36.58
2022-10-30T12:58:03.707Z,19.35
2022-10-30T13:00:36.733Z,23.23
2022-10-30T13:03:20.903Z,17.52
2022-10-30T13:05:53.210Z,16.88
2022-10-30T13:08:22.364Z,21.05
2022-10-30T13:11:04.156Z,21.65
2022-10-30T13:13:52.783Z,22.15
2022-10-30T13:16:29.452Z,19.48
2022-10-30T13:19:06.026Z,21.42
2022-10-30T13:21:53.038Z,21.27
2022-10-30T13:24:50.861Z,19.23
2022-10-30T13:27:31.025Z,20.10
2022-10-30T13:30:05.713Z,22.02
2022-10-30T13:32:38.021Z,21.60
2022-10-30T13:35:20.864Z,23.45
2022-10-30T13:38:25.029Z,22.33
2022-10-30T13:40:54.780Z,26.50
2022-10-30T13:43:30.004Z,19.08
2022-10-30T13:46:24.513Z,20.38
2022-10-30T13:49:08.305Z,20.88
2022-10-30T13:51:41.822Z,17.83
2022-10-30T13:54:20.105Z,24.77
2022-10-30T13:56:48.183Z,17.80
2022-10-30T13:59:17.298Z,21.17
2022-10-30T14:02:01.593Z,21.70
2022-10-30T14:04:37.601Z,20.17
2022-10-30T14:07:13.126Z,19.48
2022-10-30T14:09:54.632Z,21.33
2022-10-30T14:12:56.877Z,30.20
2022-10-30T14:15:33.559Z,23.40
2022-10-30T14:18:11.733Z,23.42
2022-10-30T14:20:39.555Z,28.25
2022-10-30T14:23:13.638Z,25.05
2022-10-30T14:25:40.441Z,23.05
2022-10-30T14:28:20.086Z,22.52
2022-10-30T14:30:46.971Z,27.50
2022-10-30T14:33:34.602Z,22.30
2022-10-30T14:36:39.335Z,25.05
2022-10-30T14:39:11.999Z,28.30
2022-10-30T14:41:59.747Z,24.20
2022-10-30T14:44:26.231Z,27.00
2022-10-30T14:47:03.615Z,23.95
2022-10-30T14:50:00.717Z,24.25
2022-10-30T14:52:49.243Z,22.50
2022-10-30T14:55:23.476Z,24.08
2022-10-30T14:58:02.254Z,32.28
2022-10-30T15:00:41.428Z,22.48
2022-10-30T15:03:14.730Z,31.92
2022-10-30T15:06:02.229Z,29.17
2022-10-30T15:08:47.326Z,26.42
2022-10-30T15:11:34.490Z,21.00
2022-10-30T15:14:07.510Z,19.60
2022-10-30T15:16:39.782Z,16.27
2022-10-30T15:19:08.910Z,24.48
2022-10-30T15:21:42.491Z,30.95
2022-10-30T15:24:20.237Z,22.27
2022-10-30T15:26:52.252Z,21.00
2022-10-30T15:29:24.245Z,25.63
2022-10-30T15:32:20.126Z,23.02
2022-10-30T15:35:17.858Z,24.88
2022-10-30T15:38:06.399Z,19.83
2022-10-30T15:40:38.277Z,22.50
2022-10-30T15:43:08.736Z,28.08
2022-10-30T15:45:38.870Z,32.70
2022-10-30T15:48:08.345Z,30.10
2022-10-30T15:50:38.357Z,23.38
2022-10-30T15:53:04.895Z,22.80
2022-10-30T15:55:32.977Z,22.73
2022-10-30T15:58:13.263Z,19.45
2022-10-30T16:00:40.105Z,30.67
2022-10-30T16:03:16.718Z,19.45
2022-10-30T16:05:43.731Z,21.42
2022-10-30T16:08:22.229Z,21.58
2022-10-30T16:10:52.233Z,24.67
2022-10-30T16:13:31.478Z,26.25
2022-10-30T16:16:00.152Z,30.42
2022-10-30T16:18:35.812Z,40.92
2022-10-30T16:21:06.871Z,29.33
2022-10-30T16:23:48.504Z,21.42
2022-10-30T16:26:29.878Z,16.45
2022-10-30T16:28:57.519Z,22.25
2022-10-30T16:31:26.610Z,17.52
2022-10-30T16:33:53.392Z,16.30
2022-10-30T16:36:20.106Z,12.50
2022-10-30T16:38:48.593Z,12.38
2022-10-30T16:41:15.397Z,11.10
2022-10-30T16:43:48.275Z,12.20
2022-10-30T16:46:14.622Z,12.27
2022-10-30T16:48:57.052Z,12.70
2022-10-30T16:51:23.613Z,14.93
2022-10-30T16:53:53.612Z,12.32
2022-10-30T16:56:26.511Z,13.35
2022-10-30T16:58:56.076Z,14.27
2022-10-30T17:01:29.222Z,16.48
2022-10-30T17:03:56.946Z,12.60
2022-10-30T17:06:28.697Z,8.23
2022-10-30T17:11:44.564Z,10.02
2022-10-30T17:14:22.185Z,8.70
2022-10-30T17:16:54.964Z,11.23
2022-10-30T17:19:30.364Z,9.52
2022-10-30T17:22:02.790Z,14.30
2022-10-30T17:24:35.234Z,17.45
2022-10-30T17:27:04.370Z,13.30
2022-10-30T17:29:36.803Z,13.63
2022-10-30T17:32:18.501Z,11.40
2022-10-30T17:34:44.902Z,17.23
2022-10-30T17:37:11.292Z,10.50
2022-10-30T17:39:37.699Z,14.13
2022-10-30T17:42:04.171Z,18.48
2022-10-30T17:44:34.355Z,10.52
2022-10-30T17:47:07.823Z,9.63
2022-10-30T17:49:34.214Z,15.07
2022-10-30T17:52:02.230Z,18.02
2022-10-30T17:54:28.689Z,9.45
2022-10-30T17:56:55.505Z,12.65
2022-10-30T17:59:21.894Z,9.40
2022-10-30T18:01:49.181Z,14.80
2022-10-30T18:04:20.935Z,13.63
2022-10-30T18:06:47.931Z,16.08
2022-10-30T18:09:14.472Z,13.68
2022-10-30T18:11:40.960Z,10.98
2022-10-30T18:14:09.295Z,9.77
2022-10-30T18:16:35.687Z,13.18
2022-10-30T18:19:02.132Z,7.50
2022-10-30T18:21:28.599Z,9.57
2022-10-30T18:23:55.430Z,12.63
2022-10-30T18:26:24.482Z,16.98
2022-10-30T18:28:51.369Z,13.73
2022-10-30T18:31:20.382Z,11.93
2022-10-30T18:33:47.841Z,11.80
2022-10-30T18:36:22.939Z,13.98
2022-10-30T18:38:49.916Z,11.57
2022-10-30T18:41:28.594Z,14.80
2022-10-30T18:43:55.027Z,16.52
2022-10-30T18:46:21.418Z,11.02
2022-10-30T18:48:47.835Z,18.85
2022-10-30T18:51:21.445Z,18.00
2022-10-30T18:53:51.824Z,14.23
2022-10-30T18:56:20.701Z,12.90
2022-10-30T18:58:47.266Z,9.05
2022-10-30T19:01:15.765Z,12.77
2022-10-30T19:03:43.236Z,9.57
2022-10-30T19:06:12.308Z,12.52
2022-10-30T19:08:38.788Z,13.95
2022-10-30T19:11:05.434Z,17.63
2022-10-30T19:13:32.388Z,19.15
2022-10-30T19:16:01.079Z,23.70
2022-10-30T19:18:28.697Z,24.80
2022-10-30T19:21:04.348Z,14.45
2022-10-30T19:23:32.329Z,22.15
2022-10-30T19:25:58.850Z,21.33
2022-10-30T19:28:25.846Z,20.65
2022-10-30T19:30:54.516Z,16.00
2022-10-30T19:33:22.927Z,14.23
2022-10-30T19:35:57.530Z,11.75
2022-10-30T19:38:24.060Z,18.08
2022-10-30T19:40:50.753Z,15.93
2022-10-30T19:43:17.166Z,16.60
2022-10-30T19:45:43.771Z,15.85
2022-10-30T19:48:17.685Z,13.45
2022-10-30T19:50:47.481Z,24.77
2022-10-30T19:53:14.611Z,19.25
2022-10-30T19:55:42.754Z,19.95
2022-10-30T19:58:15.063Z,18.73
2022-10-30T20:00:44.132Z,16.73
2022-10-30T20:03:13.869Z,13.50
2022-10-30T20:05:43.389Z,12.57
2022-10-30T20:08:21.004Z,21.00
2022-10-30T20:10:59.538Z,19.00
2022-10-30T20:13:27.046Z,19.83
2022-10-30T20:15:55.410Z,25.60
2022-10-30T20:18:25.194Z,23.70
2022-10-30T20:20:56.874Z,21.10
2022-10-30T20:23:24.708Z,23.70
2022-10-30T20:25:53.641Z,19.80
2022-10-30T20:28:27.633Z,16.42
2022-10-30T20:30:54.546Z,18.70
2022-10-30T20:33:21.806Z,16.73
2022-10-30T20:35:49.632Z,15.60
2022-10-30T20:38:22.096Z,17.48
2022-10-30T20:40:49.092Z,14.07
2022-10-30T20:43:18.374Z,15.20
2022-10-30T20:45:45.115Z,15.05
2022-10-30T20:48:11.730Z,14.85
2022-10-30T20:50:38.965Z,13.50
2022-10-30T20:53:05.781Z,20.63
2022-10-30T20:55:35.428Z,13.52
2022-10-30T20:58:02.709Z,13.32
2022-10-30T21:00:29.476Z,15.00
2022-10-30T21:02:55.871Z,12.48
2022-10-30T21:08:08.713Z,16.13
2022-10-30T21:10:37.365Z,13.27
2022-10-30T21:13:07.456Z,12.80
2022-10-30T21:15:39.312Z,18.67
2022-10-30T21:18:05.738Z,10.30
2022-10-30T21:20:32.142Z,13.60
2022-10-30T21:22:58.636Z,12.43
2022-10-30T21:25:25.056Z,11.02
2022-10-30T21:27:51.493Z,10.25
2022-10-30T21:30:18.020Z,15.32
2022-10-30T21:32:44.431Z,7.40
2022-10-30T21:35:10.831Z,10.98
2022-10-30T21:37:37.391Z,10.13
2022-10-30T21:40:04.888Z,9.32
2022-10-30T21:42:31.503Z,12.23
2022-10-30T21:44:57.878Z,16.95
2022-10-30T21:47:24.282Z,15.20
2022-10-30T21:49:50.725Z,13.90
2022-10-30T21:52:17.123Z,17.85
2022-10-30T21:54:43.552Z,21.73
2022-10-30T21:59:37.518Z,36.90
2022-10-30T22:02:04.105Z,23.42
2022-10-30T22:04:32.084Z,25.27
2022-10-30T22:06:58.474Z,22.65
2022-10-30T22:09:24.912Z,18.08
2022-10-30T22:11:51.342Z,21.42
2022-10-30T22:14:17.743Z,23.65
2022-10-30T22:16:45.040Z,14.25
2022-10-30T22:19:11.415Z,18.80
2022-10-30T22:21:38.028Z,14.55
2022-10-30T22:24:04.931Z,13.02
2022-10-30T22:26:31.744Z,12.77
2022-10-30T22:28:59.509Z,15.82
2022-10-30T22:31:28.560Z,9.35
2022-10-30T22:33:55.304Z,8.25
2022-10-30T22:36:23.966Z,21.10
2022-10-30T22:39:12.391Z,30.98
2022-10-30T22:41:39.584Z,21.05
2022-10-30T22:44:08.927Z,23.38
2022-10-30T22:46:36.608Z,23.08
2022-10-30T22:49:03.374Z,20.65
2022-10-30T22:51:32.931Z,24.05
2022-10-30T22:54:02.259Z,24.63
2022-10-30T22:56:31.478Z,29.35
2022-10-30T22:59:01.175Z,20.70
2022-10-30T23:01:30.015Z,25.30
2022-10-30T23:03:58.528Z,18.90
2022-10-30T23:06:25.760Z,12.63
2022-10-30T23:08:53.627Z,10.98
2022-10-30T23:11:20.493Z,9.13
2022-10-30T23:13:47.236Z,9.38
2022-10-30T23:16:17.264Z,9.88
2022-10-30T23:18:44.736Z,8.00
2022-10-30T23:21:19.865Z,8.77
2022-10-30T23:23:46.481Z,14.82
2022-10-30T23:26:34.209Z,8.95
2022-10-30T23:29:01.098Z,9.63
2022-10-30T23:31:38.145Z,12.30
2022-10-30T23:34:07.368Z,11.45
2022-10-30T23:36:33.835Z,8.90
2022-10-30T23:39:02.106Z,12.85
2022-10-30T23:41:30.330Z,13.02
2022-10-30T23:44:16.048Z,8.98
2022-10-30T23:46:43.089Z,10.90
2022-10-30T23:49:09.490Z,12.00
2022-10-30T23:51:35.906Z,13.82
2022-10-30T23:54:02.881Z,11.77
2022-10-30T23:56:29.587Z,12.32
2022-10-30T23:58:57.274Z,10.40
